Terminal Aerodrome Forecast
Issued by NWS

Home | Current Version | Previous Version | Text Only | Print | Product List | Glossary Off
Versions: 1 2 3 4 5 6 7 8 9 10 11 12 13 14 15 16 17 18 19 20 21 22 23 24 25 26 27 28 29 30

000
FTUS45 KGGW 261700
TAFGDV
TAF
KGDV 261720Z 2618/2718 34012KT P6SM OVC020
     FM262100 02010KT P6SM VCSH SCT025 BKN040
     FM270000 35013KT P6SM -RA OVC008
      TEMPO 2705/2709 3SM -RA OVC005
     FM271200 34009KT 2SM -RA BR OVC004
     FM271500 33008KT 5SM BR VCSH OVC010
      AMD LTD TO CLD VIS AND WIND=

USA.gov is the U.S. government's official web portal to all federal, state and local government web resources and services.